sensor_id;sensor_type;location;lat;lon;timestamp;temperature;humidity
20233;DHT22;37438;55.674;13.074;2023-07-13T00:03:00;16.60;99.90
20233;DHT22;37438;55.674;13.074;2023-07-13T00:06:05;16.60;99.90
20233;DHT22;37438;55.674;13.074;2023-07-13T00:09:09;16.60;99.90
20233;DHT22;37438;55.674;13.074;2023-07-13T00:12:40;16.60;99.90
20233;DHT22;37438;55.674;13.074;2023-07-13T00:16:12;16.50;99.90
20233;DHT22;37438;55.674;13.074;2023-07-13T00:19:18;16.50;99.90
20233;DHT22;37438;55.674;13.074;2023-07-13T00:22:23;16.50;99.90
20233;DHT22;37438;55.674;13.074;2023-07-13T00:25:29;16.50;99.90
20233;DHT22;37438;55.674;13.074;2023-07-13T00:28:35;16.50;99.90
20233;DHT22;37438;55.674;13.074;2023-07-13T00:31:40;16.40;99.90
20233;DHT22;37438;55.674;13.074;2023-07-13T00:34:44;16.50;99.90
20233;DHT22;37438;55.674;13.074;2023-07-13T00:37:49;16.40;99.90
20233;DHT22;37438;55.674;13.074;2023-07-13T00:40:54;16.40;99.90
20233;DHT22;37438;55.674;13.074;2023-07-13T00:44:00;16.40;99.90
20233;DHT22;37438;55.674;13.074;2023-07-13T00:47:05;16.40;99.90
20233;DHT22;37438;55.674;13.074;2023-07-13T00:50:11;16.50;99.90
20233;DHT22;37438;55.674;13.074;2023-07-13T00:53:18;16.50;99.90
20233;DHT22;37438;55.674;13.074;2023-07-13T00:56:22;16.40;99.90
20233;DHT22;37438;55.674;13.074;2023-07-13T00:59:27;16.50;99.90
20233;DHT22;37438;55.674;13.074;2023-07-13T01:02:31;16.50;99.90
20233;DHT22;37438;55.674;13.074;2023-07-13T01:05:36;16.50;99.90
20233;DHT22;37438;55.674;13.074;2023-07-13T01:08:41;16.50;99.90
20233;DHT22;37438;55.674;13.074;2023-07-13T01:11:46;16.50;99.90
20233;DHT22;37438;55.674;13.074;2023-07-13T01:14:56;16.50;99.90
20233;DHT22;37438;55.674;13.074;2023-07-13T01:18:00;16.50;99.90
20233;DHT22;37438;55.674;13.074;2023-07-13T01:21:05;16.50;99.90
20233;DHT22;37438;55.674;13.074;2023-07-13T01:24:09;16.60;99.90
20233;DHT22;37438;55.674;13.074;2023-07-13T01:27:16;16.50;99.90
20233;DHT22;37438;55.674;13.074;2023-07-13T01:30:20;16.50;99.90
20233;DHT22;37438;55.674;13.074;2023-07-13T01:33:25;16.60;99.90
20233;DHT22;37438;55.674;13.074;2023-07-13T01:36:30;16.50;99.90
20233;DHT22;37438;55.674;13.074;2023-07-13T01:39:36;16.60;99.90
20233;DHT22;37438;55.674;13.074;2023-07-13T01:42:40;16.60;99.90
20233;DHT22;37438;55.674;13.074;2023-07-13T01:45:44;16.60;99.90
20233;DHT22;37438;55.674;13.074;2023-07-13T01:48:50;16.60;99.90
20233;DHT22;37438;55.674;13.074;2023-07-13T01:51:54;16.60;99.90
20233;DHT22;37438;55.674;13.074;2023-07-13T01:54:59;16.60;99.90
20233;DHT22;37438;55.674;13.074;2023-07-13T01:58:04;16.60;99.90
20233;DHT22;37438;55.674;13.074;2023-07-13T02:01:08;16.60;99.90
20233;DHT22;37438;55.674;13.074;2023-07-13T02:04:12;16.60;99.90
20233;DHT22;37438;55.674;13.074;2023-07-13T02:07:17;16.70;99.90
20233;DHT22;37438;55.674;13.074;2023-07-13T02:10:22;16.70;99.90
20233;DHT22;37438;55.674;13.074;2023-07-13T02:13:27;16.70;99.90
20233;DHT22;37438;55.674;13.074;2023-07-13T02:16:31;16.70;99.90
20233;DHT22;37438;55.674;13.074;2023-07-13T02:19:35;16.70;99.90
20233;DHT22;37438;55.674;13.074;2023-07-13T02:22:40;16.70;99.90
20233;DHT22;37438;55.674;13.074;2023-07-13T02:25:45;16.70;99.90
20233;DHT22;37438;55.674;13.074;2023-07-13T02:28:49;16.70;99.90
20233;DHT22;37438;55.674;13.074;2023-07-13T02:31:56;16.70;99.90
20233;DHT22;37438;55.674;13.074;2023-07-13T02:35:01;16.60;99.90
20233;DHT22;37438;55.674;13.074;2023-07-13T02:38:06;16.60;99.90
20233;DHT22;37438;55.674;13.074;2023-07-13T02:41:10;16.70;99.90
20233;DHT22;37438;55.674;13.074;2023-07-13T02:44:15;16.70;99.90
20233;DHT22;37438;55.674;13.074;2023-07-13T02:47:20;16.70;99.90
20233;DHT22;37438;55.674;13.074;2023-07-13T02:50:24;16.70;99.90
20233;DHT22;37438;55.674;13.074;2023-07-13T02:53:29;16.70;99.90
20233;DHT22;37438;55.674;13.074;2023-07-13T02:56:33;16.70;99.90
20233;DHT22;37438;55.674;13.074;2023-07-13T02:59:38;16.70;99.90
20233;DHT22;37438;55.674;13.074;2023-07-13T03:02:43;16.80;99.90
20233;DHT22;37438;55.674;13.074;2023-07-13T03:05:48;16.70;99.90
20233;DHT22;37438;55.674;13.074;2023-07-13T03:08:58;16.70;99.90
20233;DHT22;37438;55.674;13.074;2023-07-13T03:12:06;16.70;99.90
20233;DHT22;37438;55.674;13.074;2023-07-13T03:15:12;16.80;99.90
20233;DHT22;37438;55.674;13.074;2023-07-13T03:18:21;16.70;99.90
20233;DHT22;37438;55.674;13.074;2023-07-13T03:21:26;16.80;99.90
20233;DHT22;37438;55.674;13.074;2023-07-13T03:24:32;16.80;99.90
20233;DHT22;37438;55.674;13.074;2023-07-13T03:27:37;16.90;99.90
20233;DHT22;37438;55.674;13.074;2023-07-13T03:30:43;17.00;99.90
20233;DHT22;37438;55.674;13.074;2023-07-13T03:33:48;17.00;99.90
20233;DHT22;37438;55.674;13.074;2023-07-13T03:36:54;17.00;99.90
20233;DHT22;37438;55.674;13.074;2023-07-13T03:39:58;17.00;99.90
20233;DHT22;37438;55.674;13.074;2023-07-13T03:43:03;17.00;99.90
20233;DHT22;37438;55.674;13.074;2023-07-13T03:46:08;17.10;99.90
20233;DHT22;37438;55.674;13.074;2023-07-13T03:49:13;17.10;99.90
20233;DHT22;37438;55.674;13.074;2023-07-13T03:52:18;17.10;99.90
20233;DHT22;37438;55.674;13.074;2023-07-13T03:55:22;17.10;99.90
20233;DHT22;37438;55.674;13.074;2023-07-13T03:58:32;17.10;99.90
20233;DHT22;37438;55.674;13.074;2023-07-13T04:01:45;17.10;99.90
20233;DHT22;37438;55.674;13.074;2023-07-13T04:04:49;17.10;99.90
20233;DHT22;37438;55.674;13.074;2023-07-13T04:07:54;17.20;99.90
20233;DHT22;37438;55.674;13.074;2023-07-13T04:10:59;17.30;99.90
20233;DHT22;37438;55.674;13.074;2023-07-13T04:14:04;17.30;99.90
20233;DHT22;37438;55.674;13.074;2023-07-13T04:17:08;17.30;99.90
20233;DHT22;37438;55.674;13.074;2023-07-13T04:20:13;17.40;99.90
20233;DHT22;37438;55.674;13.074;2023-07-13T04:23:17;17.40;99.90
20233;DHT22;37438;55.674;13.074;2023-07-13T04:26:22;17.30;99.90
20233;DHT22;37438;55.674;13.074;2023-07-13T04:29:26;17.40;99.90
20233;DHT22;37438;55.674;13.074;2023-07-13T04:32:31;17.50;99.90
20233;DHT22;37438;55.674;13.074;2023-07-13T04:35:36;17.50;99.90
20233;DHT22;37438;55.674;13.074;2023-07-13T04:38:41;17.50;99.90
20233;DHT22;37438;55.674;13.074;2023-07-13T04:41:45;17.70;99.90
20233;DHT22;37438;55.674;13.074;2023-07-13T04:44:50;17.60;99.90
20233;DHT22;37438;55.674;13.074;2023-07-13T04:47:55;17.80;99.90
20233;DHT22;37438;55.674;13.074;2023-07-13T04:51:00;17.80;99.90
20233;DHT22;37438;55.674;13.074;2023-07-13T04:54:05;17.70;99.90
20233;DHT22;37438;55.674;13.074;2023-07-13T04:57:12;17.90;99.90
20233;DHT22;37438;55.674;13.074;2023-07-13T05:00:16;18.00;99.90
20233;DHT22;37438;55.674;13.074;2023-07-13T05:03:21;18.10;99.90
20233;DHT22;37438;55.674;13.074;2023-07-13T05:06:26;18.10;99.90
20233;DHT22;37438;55.674;13.074;2023-07-13T05:09:30;18.10;99.90
20233;DHT22;37438;55.674;13.074;2023-07-13T05:12:35;18.30;99.90
20233;DHT22;37438;55.674;13.074;2023-07-13T05:15:39;18.30;99.90
20233;DHT22;37438;55.674;13.074;2023-07-13T05:18:44;18.30;99.90
20233;DHT22;37438;55.674;13.074;2023-07-13T05:21:49;18.50;99.90
20233;DHT22;37438;55.674;13.074;2023-07-13T05:24:53;18.40;99.90
20233;DHT22;37438;55.674;13.074;2023-07-13T05:27:58;18.30;99.90
20233;DHT22;37438;55.674;13.074;2023-07-13T05:31:03;18.40;99.90
20233;DHT22;37438;55.674;13.074;2023-07-13T05:34:07;18.30;99.90
20233;DHT22;37438;55.674;13.074;2023-07-13T05:37:12;18.40;99.90
20233;DHT22;37438;55.674;13.074;2023-07-13T05:40:17;18.70;99.90
20233;DHT22;37438;55.674;13.074;2023-07-13T05:43:22;18.70;99.90
20233;DHT22;37438;55.674;13.074;2023-07-13T05:46:26;18.60;99.90
20233;DHT22;37438;55.674;13.074;2023-07-13T05:49:31;18.70;99.90
20233;DHT22;37438;55.674;13.074;2023-07-13T05:52:35;18.70;99.90
20233;DHT22;37438;55.674;13.074;2023-07-13T05:55:40;18.70;99.90
20233;DHT22;37438;55.674;13.074;2023-07-13T05:58:45;18.70;99.90
20233;DHT22;37438;55.674;13.074;2023-07-13T06:01:49;18.80;99.90
20233;DHT22;37438;55.674;13.074;2023-07-13T06:04:56;18.90;99.90
20233;DHT22;37438;55.674;13.074;2023-07-13T06:08:00;19.00;99.90
20233;DHT22;37438;55.674;13.074;2023-07-13T06:11:06;19.10;99.90
20233;DHT22;37438;55.674;13.074;2023-07-13T06:14:10;18.90;99.90
20233;DHT22;37438;55.674;13.074;2023-07-13T06:17:15;19.00;99.90
20233;DHT22;37438;55.674;13.074;2023-07-13T06:20:20;19.20;99.90
20233;DHT22;37438;55.674;13.074;2023-07-13T06:23:25;19.40;99.90
20233;DHT22;37438;55.674;13.074;2023-07-13T06:26:30;19.80;99.90
20233;DHT22;37438;55.674;13.074;2023-07-13T06:29:34;19.50;99.90
20233;DHT22;37438;55.674;13.074;2023-07-13T06:32:39;19.20;99.90
20233;DHT22;37438;55.674;13.074;2023-07-13T06:35:45;19.00;99.90
20233;DHT22;37438;55.674;13.074;2023-07-13T06:38:49;19.00;99.90
20233;DHT22;37438;55.674;13.074;2023-07-13T06:41:54;18.80;99.90
20233;DHT22;37438;55.674;13.074;2023-07-13T06:44:58;18.90;99.90
20233;DHT22;37438;55.674;13.074;2023-07-13T06:48:03;18.60;99.90
20233;DHT22;37438;55.674;13.074;2023-07-13T06:51:07;18.60;99.90
20233;DHT22;37438;55.674;13.074;2023-07-13T06:54:13;18.70;99.90
20233;DHT22;37438;55.674;13.074;2023-07-13T06:57:18;18.80;99.90
20233;DHT22;37438;55.674;13.074;2023-07-13T07:00:22;18.60;99.90
20233;DHT22;37438;55.674;13.074;2023-07-13T07:03:27;18.80;99.90
20233;DHT22;37438;55.674;13.074;2023-07-13T07:06:31;18.70;99.90
20233;DHT22;37438;55.674;13.074;2023-07-13T07:09:36;18.80;99.90
20233;DHT22;37438;55.674;13.074;2023-07-13T07:12:40;18.80;99.90
20233;DHT22;37438;55.674;13.074;2023-07-13T07:15:45;19.00;99.90
20233;DHT22;37438;55.674;13.074;2023-07-13T07:18:49;19.00;99.90
20233;DHT22;37438;55.674;13.074;2023-07-13T07:21:54;19.10;99.90
20233;DHT22;37438;55.674;13.074;2023-07-13T07:24:58;19.10;99.90
20233;DHT22;37438;55.674;13.074;2023-07-13T07:28:03;19.10;99.90
20233;DHT22;37438;55.674;13.074;2023-07-13T07:31:10;19.00;99.90
20233;DHT22;37438;55.674;13.074;2023-07-13T07:34:18;19.10;99.90
20233;DHT22;37438;55.674;13.074;2023-07-13T07:37:22;19.00;99.90
20233;DHT22;37438;55.674;13.074;2023-07-13T07:40:46;18.90;99.90
20233;DHT22;37438;55.674;13.074;2023-07-13T07:43:54;19.30;99.90
20233;DHT22;37438;55.674;13.074;2023-07-13T07:46:58;20.20;99.90
20233;DHT22;37438;55.674;13.074;2023-07-13T07:50:03;20.10;99.90
20233;DHT22;37438;55.674;13.074;2023-07-13T07:53:07;20.30;99.90
20233;DHT22;37438;55.674;13.074;2023-07-13T07:56:14;20.60;99.90
20233;DHT22;37438;55.674;13.074;2023-07-13T07:59:23;21.10;99.90
20233;DHT22;37438;55.674;13.074;2023-07-13T08:02:30;21.30;99.90
20233;DHT22;37438;55.674;13.074;2023-07-13T08:05:37;21.20;99.90
20233;DHT22;37438;55.674;13.074;2023-07-13T08:08:59;21.50;99.90
20233;DHT22;37438;55.674;13.074;2023-07-13T08:12:04;21.10;99.90
20233;DHT22;37438;55.674;13.074;2023-07-13T08:15:14;20.50;99.90
20233;DHT22;37438;55.674;13.074;2023-07-13T08:18:18;20.30;99.90
20233;DHT22;37438;55.674;13.074;2023-07-13T08:21:23;20.40;99.90
20233;DHT22;37438;55.674;13.074;2023-07-13T08:24:27;20.70;99.90
20233;DHT22;37438;55.674;13.074;2023-07-13T08:27:33;21.10;99.90
20233;DHT22;37438;55.674;13.074;2023-07-13T08:30:37;21.80;99.90
20233;DHT22;37438;55.674;13.074;2023-07-13T08:33:42;19.10;99.90
20233;DHT22;37438;55.674;13.074;2023-07-13T08:36:47;15.80;99.90
20233;DHT22;37438;55.674;13.074;2023-07-13T08:39:51;16.80;99.90
20233;DHT22;37438;55.674;13.074;2023-07-13T08:42:57;17.20;99.90
20233;DHT22;37438;55.674;13.074;2023-07-13T08:46:07;17.70;99.90
20233;DHT22;37438;55.674;13.074;2023-07-13T08:49:18;18.20;99.90
20233;DHT22;37438;55.674;13.074;2023-07-13T08:52:32;18.60;99.90
20233;DHT22;37438;55.674;13.074;2023-07-13T08:55:37;19.00;99.90
20233;DHT22;37438;55.674;13.074;2023-07-13T08:58:43;20.20;99.90
20233;DHT22;37438;55.674;13.074;2023-07-13T09:05:10;20.40;99.90
20233;DHT22;37438;55.674;13.074;2023-07-13T09:11:45;21.00;99.90
20233;DHT22;37438;55.674;13.074;2023-07-13T09:14:51;20.90;99.90
20233;DHT22;37438;55.674;13.074;2023-07-13T09:17:59;20.40;99.90
20233;DHT22;37438;55.674;13.074;2023-07-13T09:21:10;20.40;99.90
20233;DHT22;37438;55.674;13.074;2023-07-13T09:27:31;18.70;99.90
20233;DHT22;37438;55.674;13.074;2023-07-13T09:33:48;18.00;99.90
20233;DHT22;37438;55.674;13.074;2023-07-13T09:36:55;18.00;99.90
20233;DHT22;37438;55.674;13.074;2023-07-13T09:39:59;18.10;99.90
20233;DHT22;37438;55.674;13.074;2023-07-13T09:43:05;18.20;99.90
20233;DHT22;37438;55.674;13.074;2023-07-13T09:46:21;18.90;99.90
20233;DHT22;37438;55.674;13.074;2023-07-13T09:49:27;18.80;99.90
20233;DHT22;37438;55.674;13.074;2023-07-13T09:52:46;19.70;99.90
20233;DHT22;37438;55.674;13.074;2023-07-13T09:55:50;19.70;99.90
20233;DHT22;37438;55.674;13.074;2023-07-13T09:58:57;19.70;99.90
20233;DHT22;37438;55.674;13.074;2023-07-13T10:02:01;20.60;99.90
20233;DHT22;37438;55.674;13.074;2023-07-13T10:05:13;20.80;99.90
20233;DHT22;37438;55.674;13.074;2023-07-13T10:08:25;21.20;99.90
20233;DHT22;37438;55.674;13.074;2023-07-13T10:11:32;20.60;99.90
20233;DHT22;37438;55.674;13.074;2023-07-13T10:14:39;20.00;99.90
20233;DHT22;37438;55.674;13.074;2023-07-13T10:17:44;19.90;99.90
20233;DHT22;37438;55.674;13.074;2023-07-13T10:20:50;19.80;99.90
20233;DHT22;37438;55.674;13.074;2023-07-13T10:27:38;20.80;99.90
20233;DHT22;37438;55.674;13.074;2023-07-13T10:30:44;20.90;99.90
20233;DHT22;37438;55.674;13.074;2023-07-13T10:33:50;20.00;99.90
20233;DHT22;37438;55.674;13.074;2023-07-13T10:36:54;19.30;99.90
20233;DHT22;37438;55.674;13.074;2023-07-13T10:39:59;18.70;99.90
20233;DHT22;37438;55.674;13.074;2023-07-13T10:43:06;18.40;99.90
20233;DHT22;37438;55.674;13.074;2023-07-13T10:46:14;18.80;99.90
20233;DHT22;37438;55.674;13.074;2023-07-13T10:49:20;19.40;99.90
20233;DHT22;37438;55.674;13.074;2023-07-13T11:02:26;21.20;99.90
20233;DHT22;37438;55.674;13.074;2023-07-13T11:05:32;21.40;99.90
20233;DHT22;37438;55.674;13.074;2023-07-13T11:11:51;21.70;99.90
20233;DHT22;37438;55.674;13.074;2023-07-13T11:18:21;22.30;99.90
20233;DHT22;37438;55.674;13.074;2023-07-13T11:21:26;22.10;99.90
20233;DHT22;37438;55.674;13.074;2023-07-13T11:28:32;22.30;99.90
20233;DHT22;37438;55.674;13.074;2023-07-13T11:31:29;21.80;99.90
20233;DHT22;37438;55.674;13.074;2023-07-13T11:34:37;22.00;99.90
20233;DHT22;37438;55.674;13.074;2023-07-13T11:37:42;23.00;99.90
20233;DHT22;37438;55.674;13.074;2023-07-13T11:40:50;22.80;99.90
20233;DHT22;37438;55.674;13.074;2023-07-13T11:47:23;23.20;99.90
20233;DHT22;37438;55.674;13.074;2023-07-13T11:50:30;23.00;99.90
20233;DHT22;37438;55.674;13.074;2023-07-13T11:53:38;23.00;99.90
20233;DHT22;37438;55.674;13.074;2023-07-13T11:56:43;23.50;99.90
20233;DHT22;37438;55.674;13.074;2023-07-13T11:59:48;22.50;99.90
20233;DHT22;37438;55.674;13.074;2023-07-13T12:02:54;22.70;99.90
20233;DHT22;37438;55.674;13.074;2023-07-13T12:06:06;22.90;99.90
20233;DHT22;37438;55.674;13.074;2023-07-13T12:09:27;22.90;99.90
20233;DHT22;37438;55.674;13.074;2023-07-13T12:12:32;22.90;99.90
20233;DHT22;37438;55.674;13.074;2023-07-13T12:15:38;23.50;99.90
20233;DHT22;37438;55.674;13.074;2023-07-13T12:18:43;23.60;99.90
20233;DHT22;37438;55.674;13.074;2023-07-13T12:21:53;23.80;99.90
20233;DHT22;37438;55.674;13.074;2023-07-13T12:24:58;23.60;99.90
20233;DHT22;37438;55.674;13.074;2023-07-13T12:28:19;23.20;99.90
20233;DHT22;37438;55.674;13.074;2023-07-13T12:31:26;23.60;99.90
20233;DHT22;37438;55.674;13.074;2023-07-13T12:34:30;23.60;99.90
20233;DHT22;37438;55.674;13.074;2023-07-13T12:37:35;24.10;99.90
20233;DHT22;37438;55.674;13.074;2023-07-13T12:40:40;23.80;99.90
20233;DHT22;37438;55.674;13.074;2023-07-13T12:43:45;23.70;99.90
20233;DHT22;37438;55.674;13.074;2023-07-13T12:46:53;21.90;99.90
20233;DHT22;37438;55.674;13.074;2023-07-13T12:49:59;22.20;99.90
20233;DHT22;37438;55.674;13.074;2023-07-13T12:53:05;21.60;99.90
20233;DHT22;37438;55.674;13.074;2023-07-13T12:56:18;21.60;99.90
20233;DHT22;37438;55.674;13.074;2023-07-13T12:59:24;21.60;99.90
20233;DHT22;37438;55.674;13.074;2023-07-13T13:02:31;21.90;99.90
20233;DHT22;37438;55.674;13.074;2023-07-13T13:05:36;21.60;99.90
20233;DHT22;37438;55.674;13.074;2023-07-13T13:08:42;20.20;99.90
20233;DHT22;37438;55.674;13.074;2023-07-13T13:11:48;20.60;99.90
20233;DHT22;37438;55.674;13.074;2023-07-13T13:14:52;20.70;99.90
20233;DHT22;37438;55.674;13.074;2023-07-13T13:17:57;21.10;99.90
20233;DHT22;37438;55.674;13.074;2023-07-13T13:21:02;21.90;99.90
20233;DHT22;37438;55.674;13.074;2023-07-13T13:24:14;22.10;99.90
20233;DHT22;37438;55.674;13.074;2023-07-13T13:27:22;22.60;99.90
20233;DHT22;37438;55.674;13.074;2023-07-13T13:30:26;22.80;99.90
20233;DHT22;37438;55.674;13.074;2023-07-13T13:33:31;23.40;99.90
20233;DHT22;37438;55.674;13.074;2023-07-13T13:36:36;23.60;99.90
20233;DHT22;37438;55.674;13.074;2023-07-13T13:39:41;23.80;99.90
20233;DHT22;37438;55.674;13.074;2023-07-13T13:42:54;23.90;81.30
20233;DHT22;37438;55.674;13.074;2023-07-13T13:45:59;23.70;1.00
20233;DHT22;37438;55.674;13.074;2023-07-13T13:49:04;23.30;50.50
20233;DHT22;37438;55.674;13.074;2023-07-13T13:52:09;23.10;99.90
20233;DHT22;37438;55.674;13.074;2023-07-13T13:55:16;21.70;99.90
20233;DHT22;37438;55.674;13.074;2023-07-13T13:58:21;21.10;99.90
20233;DHT22;37438;55.674;13.074;2023-07-13T14:01:30;21.10;1.00
20233;DHT22;37438;55.674;13.074;2023-07-13T14:04:35;20.90;99.90
20233;DHT22;37438;55.674;13.074;2023-07-13T14:07:40;20.70;72.70
20233;DHT22;37438;55.674;13.074;2023-07-13T14:10:45;21.10;99.90
20233;DHT22;37438;55.674;13.074;2023-07-13T14:13:54;20.60;99.90
20233;DHT22;37438;55.674;13.074;2023-07-13T14:16:59;20.80;99.90
20233;DHT22;37438;55.674;13.074;2023-07-13T14:20:05;22.40;99.90
20233;DHT22;37438;55.674;13.074;2023-07-13T14:23:14;21.90;99.90
20233;DHT22;37438;55.674;13.074;2023-07-13T14:26:20;22.60;99.90
20233;DHT22;37438;55.674;13.074;2023-07-13T14:29:25;21.80;99.90
20233;DHT22;37438;55.674;13.074;2023-07-13T14:32:30;21.30;99.90
20233;DHT22;37438;55.674;13.074;2023-07-13T14:35:34;21.70;99.90
20233;DHT22;37438;55.674;13.074;2023-07-13T14:38:39;20.90;99.90
20233;DHT22;37438;55.674;13.074;2023-07-13T14:41:44;21.00;99.90
20233;DHT22;37438;55.674;13.074;2023-07-13T14:44:48;21.10;99.90
20233;DHT22;37438;55.674;13.074;2023-07-13T14:47:54;21.30;99.90
20233;DHT22;37438;55.674;13.074;2023-07-13T14:50:58;21.70;99.90
20233;DHT22;37438;55.674;13.074;2023-07-13T14:54:04;21.40;99.90
20233;DHT22;37438;55.674;13.074;2023-07-13T14:57:12;21.60;1.00
20233;DHT22;37438;55.674;13.074;2023-07-13T15:00:21;21.50;99.90
20233;DHT22;37438;55.674;13.074;2023-07-13T15:03:25;21.50;99.90
20233;DHT22;37438;55.674;13.074;2023-07-13T15:06:30;21.10;99.90
20233;DHT22;37438;55.674;13.074;2023-07-13T15:09:35;21.30;99.90
20233;DHT22;37438;55.674;13.074;2023-07-13T15:12:40;21.20;99.90
20233;DHT22;37438;55.674;13.074;2023-07-13T15:15:49;21.30;99.90
20233;DHT22;37438;55.674;13.074;2023-07-13T15:18:53;21.80;99.90
20233;DHT22;37438;55.674;13.074;2023-07-13T15:21:58;21.90;99.90
20233;DHT22;37438;55.674;13.074;2023-07-13T15:25:03;21.70;99.90
20233;DHT22;37438;55.674;13.074;2023-07-13T15:28:10;21.10;99.90
20233;DHT22;37438;55.674;13.074;2023-07-13T15:31:17;20.40;99.90
20233;DHT22;37438;55.674;13.074;2023-07-13T15:34:23;20.70;99.90
20233;DHT22;37438;55.674;13.074;2023-07-13T15:37:29;21.20;99.90
20233;DHT22;37438;55.674;13.074;2023-07-13T15:40:33;20.40;99.90
20233;DHT22;37438;55.674;13.074;2023-07-13T15:43:38;19.90;99.90
20233;DHT22;37438;55.674;13.074;2023-07-13T15:46:42;19.70;99.90
20233;DHT22;37438;55.674;13.074;2023-07-13T15:49:47;19.10;99.90
20233;DHT22;37438;55.674;13.074;2023-07-13T15:52:52;17.80;99.90
20233;DHT22;37438;55.674;13.074;2023-07-13T15:55:57;16.60;99.90
20233;DHT22;37438;55.674;13.074;2023-07-13T15:59:02;17.00;99.90
20233;DHT22;37438;55.674;13.074;2023-07-13T16:02:11;17.20;99.90
20233;DHT22;37438;55.674;13.074;2023-07-13T16:05:16;17.10;99.90
20233;DHT22;37438;55.674;13.074;2023-07-13T16:08:26;18.10;99.90
20233;DHT22;37438;55.674;13.074;2023-07-13T16:11:35;18.70;99.90
20233;DHT22;37438;55.674;13.074;2023-07-13T16:14:40;18.40;99.90
20233;DHT22;37438;55.674;13.074;2023-07-13T16:17:45;18.30;99.90
20233;DHT22;37438;55.674;13.074;2023-07-13T16:20:50;18.40;99.90
20233;DHT22;37438;55.674;13.074;2023-07-13T16:23:57;18.40;99.90
20233;DHT22;37438;55.674;13.074;2023-07-13T16:27:08;18.80;99.90
20233;DHT22;37438;55.674;13.074;2023-07-13T16:30:14;18.40;99.90
20233;DHT22;37438;55.674;13.074;2023-07-13T16:33:19;18.10;99.90
20233;DHT22;37438;55.674;13.074;2023-07-13T16:36:26;17.90;99.90
20233;DHT22;37438;55.674;13.074;2023-07-13T16:39:31;18.20;99.90
20233;DHT22;37438;55.674;13.074;2023-07-13T16:42:35;18.20;99.90
20233;DHT22;37438;55.674;13.074;2023-07-13T16:45:39;18.20;99.90
20233;DHT22;37438;55.674;13.074;2023-07-13T16:48:48;18.10;99.90
20233;DHT22;37438;55.674;13.074;2023-07-13T16:51:52;18.10;99.90
20233;DHT22;37438;55.674;13.074;2023-07-13T16:54:57;18.00;99.90
20233;DHT22;37438;55.674;13.074;2023-07-13T16:58:01;17.70;99.90
20233;DHT22;37438;55.674;13.074;2023-07-13T17:01:07;17.80;99.90
20233;DHT22;37438;55.674;13.074;2023-07-13T17:04:12;17.80;99.90
20233;DHT22;37438;55.674;13.074;2023-07-13T17:07:17;17.90;99.90
20233;DHT22;37438;55.674;13.074;2023-07-13T17:10:23;18.00;99.90
20233;DHT22;37438;55.674;13.074;2023-07-13T17:13:28;18.00;99.90
20233;DHT22;37438;55.674;13.074;2023-07-13T17:16:32;18.00;99.90
20233;DHT22;37438;55.674;13.074;2023-07-13T17:19:37;18.00;99.90
20233;DHT22;37438;55.674;13.074;2023-07-13T17:22:41;18.10;99.90
20233;DHT22;37438;55.674;13.074;2023-07-13T17:25:46;18.10;99.90
20233;DHT22;37438;55.674;13.074;2023-07-13T17:28:50;18.20;99.90
20233;DHT22;37438;55.674;13.074;2023-07-13T17:31:55;18.20;99.90
20233;DHT22;37438;55.674;13.074;2023-07-13T17:34:59;18.20;99.90
20233;DHT22;37438;55.674;13.074;2023-07-13T17:38:04;18.10;99.90
20233;DHT22;37438;55.674;13.074;2023-07-13T17:41:10;18.30;99.90
20233;DHT22;37438;55.674;13.074;2023-07-13T17:44:26;18.30;99.90
20233;DHT22;37438;55.674;13.074;2023-07-13T17:47:31;18.10;99.90
20233;DHT22;37438;55.674;13.074;2023-07-13T17:50:36;18.20;99.90
20233;DHT22;37438;55.674;13.074;2023-07-13T17:53:40;18.10;99.90
20233;DHT22;37438;55.674;13.074;2023-07-13T17:56:46;18.10;99.90
20233;DHT22;37438;55.674;13.074;2023-07-13T17:59:51;18.10;99.90
20233;DHT22;37438;55.674;13.074;2023-07-13T18:02:56;18.20;99.90
20233;DHT22;37438;55.674;13.074;2023-07-13T18:06:02;18.30;99.90
20233;DHT22;37438;55.674;13.074;2023-07-13T18:09:20;18.30;99.90
20233;DHT22;37438;55.674;13.074;2023-07-13T18:12:24;18.40;99.90
20233;DHT22;37438;55.674;13.074;2023-07-13T18:15:29;18.40;99.90
20233;DHT22;37438;55.674;13.074;2023-07-13T18:18:34;18.30;99.90
20233;DHT22;37438;55.674;13.074;2023-07-13T18:21:39;18.30;99.90
20233;DHT22;37438;55.674;13.074;2023-07-13T18:24:43;18.30;99.90
20233;DHT22;37438;55.674;13.074;2023-07-13T18:27:48;18.30;99.90
20233;DHT22;37438;55.674;13.074;2023-07-13T18:30:54;18.20;99.90
20233;DHT22;37438;55.674;13.074;2023-07-13T18:34:00;18.30;99.90
20233;DHT22;37438;55.674;13.074;2023-07-13T18:37:19;18.30;99.90
20233;DHT22;37438;55.674;13.074;2023-07-13T18:40:23;18.30;99.90
20233;DHT22;37438;55.674;13.074;2023-07-13T18:43:33;18.30;99.90
20233;DHT22;37438;55.674;13.074;2023-07-13T18:46:38;18.40;99.90
20233;DHT22;37438;55.674;13.074;2023-07-13T18:49:42;18.40;99.90
20233;DHT22;37438;55.674;13.074;2023-07-13T18:52:47;18.40;99.90
20233;DHT22;37438;55.674;13.074;2023-07-13T18:55:54;18.40;99.90
20233;DHT22;37438;55.674;13.074;2023-07-13T18:58:59;18.40;99.90
20233;DHT22;37438;55.674;13.074;2023-07-13T19:02:10;18.30;99.90
20233;DHT22;37438;55.674;13.074;2023-07-13T19:05:20;18.30;99.90
20233;DHT22;37438;55.674;13.074;2023-07-13T19:08:24;18.40;99.90
20233;DHT22;37438;55.674;13.074;2023-07-13T19:11:29;18.40;99.90
20233;DHT22;37438;55.674;13.074;2023-07-13T19:14:34;18.30;99.90
20233;DHT22;37438;55.674;13.074;2023-07-13T19:17:38;18.10;99.90
20233;DHT22;37438;55.674;13.074;2023-07-13T19:20:46;18.20;99.90
20233;DHT22;37438;55.674;13.074;2023-07-13T19:23:52;18.20;99.90
20233;DHT22;37438;55.674;13.074;2023-07-13T19:26:57;18.20;99.90
20233;DHT22;37438;55.674;13.074;2023-07-13T19:30:02;18.20;99.90
20233;DHT22;37438;55.674;13.074;2023-07-13T19:33:09;18.20;99.90
20233;DHT22;37438;55.674;13.074;2023-07-13T19:36:19;18.20;99.90
20233;DHT22;37438;55.674;13.074;2023-07-13T19:39:28;18.10;99.90
20233;DHT22;37438;55.674;13.074;2023-07-13T19:42:33;18.10;99.90
20233;DHT22;37438;55.674;13.074;2023-07-13T19:45:38;18.10;99.90
20233;DHT22;37438;55.674;13.074;2023-07-13T19:48:43;18.00;99.90
20233;DHT22;37438;55.674;13.074;2023-07-13T19:51:47;18.00;99.90
20233;DHT22;37438;55.674;13.074;2023-07-13T19:54:52;18.00;99.90
20233;DHT22;37438;55.674;13.074;2023-07-13T19:57:57;18.00;99.90